^^
Meteo Knjazevac Station Historical Data
Daily Summary for March 8, 2021 Units:  Both    English   Metric
Daily Weekly Monthly Yearly Custom
  High: Low: Average:
Temperature: 78.4 °F /  25.8 °C 43.9 °F /  6.6 °C 62.1 °F /  16.7 °C
Dew Point: 52.1 °F /  11.2 °C 39.7 °F /  4.3 °C 46.3 °F /  7.9 °C
Humidity: 88% 35% 60%
Wind Speed: 9mph /  14.5km/h - 2.3mph /  3.7km/h
Wind Gust: 18mph /  29km/h - -
Wind- - SSE
Pressure: 30.29 in /  1025.6 hPa 30.18 in /  1021.9 hPa -
Precipitation: 0.00 in /  0 mm    
Historical Graphs
 
 
Tabular Data for March 8, 2021
Time Temperature Dew Point Pressure Wind Wind Speed Wind Gust Humidity Rainfall Rate (Hourly) solar Conditions
00:00 52 °F /  11.1 °C 41.4 °F /  5.2 °C 30.27in /  1024.9hPa West 1mph /  1.6km/h 3mph /  4.8km/h 67% 0.00in /  0mm 0 W/m2
00:10 51.6 °F /  10.9 °C 41 °F /  5 °C 30.27in /  1024.9hPa WSW 1mph /  1.6km/h 2mph /  3.2km/h 67% 0.00in /  0mm 0 W/m2
00:20 51.4 °F /  10.8 °C 41.2 °F /  5.1 °C 30.27in /  1024.9hPa WNW 1mph /  1.6km/h 2mph /  3.2km/h 68% 0.00in /  0mm 0 W/m2
00:30 51.4 °F /  10.8 °C 41.2 °F /  5.1 °C 30.27in /  1024.9hPa West 1mph /  1.6km/h 2mph /  3.2km/h 68% 0.00in /  0mm 0 W/m2
00:40 51.3 °F /  10.7 °C 41.1 °F /  5.1 °C 30.28in /  1025.3hPa Calm   2mph /  3.2km/h 68% 0.00in /  0mm 0 W/m2
00:50 51.1 °F /  10.6 °C 41.3 °F /  5.2 °C 30.27in /  1024.9hPa Calm   2mph /  3.2km/h 69% 0.00in /  0mm 0 W/m2
01:00 51.1 °F /  10.6 °C 41.3 °F /  5.2 °C 30.27in /  1024.9hPa East 1mph /  1.6km/h 2mph /  3.2km/h 69% 0.00in /  0mm 0 W/m2
01:10 50.9 °F /  10.5 °C 41.1 °F /  5.1 °C 30.27in /  1024.9hPa Calm   2mph /  3.2km/h 69% 0.00in /  0mm 0 W/m2
01:20 50.7 °F /  10.4 °C 41.3 °F /  5.2 °C 30.27in /  1024.9hPa WSW 1mph /  1.6km/h 4mph /  6.4km/h 70% 0.00in /  0mm 0 W/m2
01:30 50.7 °F /  10.4 °C 41.3 °F /  5.2 °C 30.28in /  1025.3hPa Calm   2mph /  3.2km/h 70% 0.00in /  0mm 0 W/m2
01:40 50.5 °F /  10.3 °C 41.8 °F /  5.4 °C 30.28in /  1025.3hPa SSE 1mph /  1.6km/h 2mph /  3.2km/h 72% 0.00in /  0mm 0 W/m2
01:50 50.4 °F /  10.2 °C 42 °F /  5.6 °C 30.28in /  1025.3hPa Calm   5mph /  8km/h 73% 0.00in /  0mm 0 W/m2
02:00 50.4 °F /  10.2 °C 42 °F /  5.6 °C 30.28in /  1025.3hPa Calm   3mph /  4.8km/h 73% 0.00in /  0mm 0 W/m2
02:10 50.2 °F /  10.1 °C 41.9 °F /  5.5 °C 30.28in /  1025.3hPa NW 1mph /  1.6km/h 3mph /  4.8km/h 73% 0.00in /  0mm 0 W/m2
02:20 50 °F /  10 °C 41.7 °F /  5.4 °C 30.28in /  1025.3hPa Calm   2mph /  3.2km/h 73% 0.00in /  0mm 0 W/m2
02:30 49.8 °F /  9.9 °C 41.5 °F /  5.3 °C 30.28in /  1025.3hPa Calm   4mph /  6.4km/h 73% 0.00in /  0mm 0 W/m2
02:40 49.5 °F /  9.7 °C 41.5 °F /  5.3 °C 30.28in /  1025.3hPa Calm   3mph /  4.8km/h 74% 0.00in /  0mm 0 W/m2
02:50 49.1 °F /  9.5 °C 41.2 °F /  5.1 °C 30.28in /  1025.3hPa Calm   2mph /  3.2km/h 74% 0.00in /  0mm 0 W/m2
03:00 48.7 °F /  9.3 °C 41.2 °F /  5.1 °C 30.28in /  1025.3hPa NW 1mph /  1.6km/h 2mph /  3.2km/h 75% 0.00in /  0mm 0 W/m2
03:10 48.6 °F /  9.2 °C 41 °F /  5 °C 30.28in /  1025.3hPa NW 1mph /  1.6km/h 2mph /  3.2km/h 75% 0.00in /  0mm 0 W/m2
03:20 48.2 °F /  9 °C 40.6 °F /  4.8 °C 30.28in /  1025.3hPa Calm   2mph /  3.2km/h 75% 0.00in /  0mm 0 W/m2
03:30 47.8 °F /  8.8 °C 41 °F /  5 °C 30.28in /  1025.3hPa NE 1mph /  1.6km/h 3mph /  4.8km/h 77% 0.00in /  0mm 0 W/m2
03:40 47.7 °F /  8.7 °C 41.1 °F /  5.1 °C 30.28in /  1025.3hPa Calm   2mph /  3.2km/h 78% 0.00in /  0mm 0 W/m2
03:50 47.5 °F /  8.6 °C 41 °F /  5 °C 30.28in /  1025.3hPa NW 1mph /  1.6km/h 2mph /  3.2km/h 78% 0.00in /  0mm 0 W/m2
04:00 47.1 °F /  8.4 °C 40.9 °F /  4.9 °C 30.28in /  1025.3hPa North 2mph /  3.2km/h 3mph /  4.8km/h 79% 0.00in /  0mm 0 W/m2
04:10 46.9 °F /  8.3 °C 40.4 °F /  4.7 °C 30.28in /  1025.3hPa WNW 1mph /  1.6km/h 2mph /  3.2km/h 78% 0.00in /  0mm 0 W/m2
04:20 46.6 °F /  8.1 °C 40.4 °F /  4.7 °C 30.28in /  1025.3hPa NNW 1mph /  1.6km/h 2mph /  3.2km/h 79% 0.00in /  0mm 0 W/m2
04:30 46.4 °F /  8 °C 40.2 °F /  4.6 °C 30.28in /  1025.3hPa Calm   2mph /  3.2km/h 79% 0.00in /  0mm 0 W/m2
04:40 46 °F /  7.8 °C 40.2 °F /  4.6 °C 30.28in /  1025.3hPa NNW 1mph /  1.6km/h 2mph /  3.2km/h 80% 0.00in /  0mm 0 W/m2
04:50 45.9 °F /  7.7 °C 40 °F /  4.4 °C 30.28in /  1025.3hPa Calm   2mph /  3.2km/h 80% 0.00in /  0mm 0 W/m2
05:00 45.5 °F /  7.5 °C 40 °F /  4.4 °C 30.28in /  1025.3hPa Calm   2mph /  3.2km/h 81% 0.00in /  0mm 0 W/m2
05:10 45.3 °F /  7.4 °C 39.8 °F /  4.3 °C 30.28in /  1025.3hPa West 1mph /  1.6km/h 3mph /  4.8km/h 81% 0.00in /  0mm 0 W/m2
05:20 45 °F /  7.2 °C 40.1 °F /  4.5 °C 30.28in /  1025.3hPa NW 1mph /  1.6km/h 3mph /  4.8km/h 83% 0.00in /  0mm 0 W/m2
05:30 44.6 °F /  7 °C 39.8 °F /  4.3 °C 30.28in /  1025.3hPa NW 2mph /  3.2km/h 3mph /  4.8km/h 83% 0.00in /  0mm 0 W/m2
05:40 44.6 °F /  7 °C 39.8 °F /  4.3 °C 30.28in /  1025.3hPa Calm   3mph /  4.8km/h 83% 0.00in /  0mm 0 W/m2
05:50 44.6 °F /  7 °C 40.1 °F /  4.5 °C 30.28in /  1025.3hPa NE 1mph /  1.6km/h 6mph /  9.7km/h 84% 0.00in /  0mm 0 W/m2
06:00 44.2 °F /  6.8 °C 39.7 °F /  4.3 °C 30.28in /  1025.3hPa West 1mph /  1.6km/h 2mph /  3.2km/h 84% 0.00in /  0mm 0 W/m2
06:10 44.2 °F /  6.8 °C 39.7 °F /  4.3 °C 30.28in /  1025.3hPa WNW 1mph /  1.6km/h 3mph /  4.8km/h 84% 0.00in /  0mm 8 W/m2
06:20 44.1 °F /  6.7 °C 39.8 °F /  4.3 °C 30.28in /  1025.3hPa Calm   3mph /  4.8km/h 85% 0.00in /  0mm 15 W/m2
06:30 44.1 °F /  6.7 °C 39.8 °F /  4.3 °C 30.28in /  1025.3hPa NNW 1mph /  1.6km/h 2mph /  3.2km/h 85% 0.00in /  0mm 23 W/m2
06:40 44.1 °F /  6.7 °C 39.9 °F /  4.4 °C 30.29in /  1025.6hPa Calm   3mph /  4.8km/h 85% 0.00in /  0mm 30 W/m2
06:50 44.2 °F /  6.8 °C 40 °F /  4.4 °C 30.29in /  1025.6hPa Calm   5mph /  8km/h 85% 0.00in /  0mm 42 W/m2
07:00 43.9 °F /  6.6 °C 39.7 °F /  4.3 °C 30.29in /  1025.6hPa Calm   2mph /  3.2km/h 85% 0.00in /  0mm 61 W/m2
07:10 43.9 °F /  6.6 °C 39.7 °F /  4.3 °C 30.29in /  1025.6hPa WNW 1mph /  1.6km/h 2mph /  3.2km/h 85% 0.00in /  0mm 75 W/m2
07:20 43.9 °F /  6.6 °C 39.7 °F /  4.3 °C 30.29in /  1025.6hPa Calm   2mph /  3.2km/h 85% 0.00in /  0mm 85 W/m2
07:30 44.1 °F /  6.7 °C 40.1 °F /  4.5 °C 30.29in /  1025.6hPa West 2mph /  3.2km/h 3mph /  4.8km/h 86% 0.00in /  0mm 175 W/m2
07:40 44.4 °F /  6.9 °C 40.5 °F /  4.7 °C 30.29in /  1025.6hPa West 1mph /  1.6km/h 3mph /  4.8km/h 86% 0.00in /  0mm 169 W/m2
07:50 45 °F /  7.2 °C 41.6 °F /  5.3 °C 30.29in /  1025.6hPa WNW 1mph /  1.6km/h 3mph /  4.8km/h 88% 0.00in /  0mm 252 W/m2
08:00 45.8 °F /  7.7 °C 41.9 °F /  5.5 °C 30.29in /  1025.6hPa Calm   3mph /  4.8km/h 86% 0.00in /  0mm 268 W/m2
08:10 46.6 °F /  8.1 °C 43.2 °F /  6.2 °C 30.29in /  1025.6hPa Calm   2mph /  3.2km/h 88% 0.00in /  0mm 296 W/m2
08:20 47.6 °F /  8.7 °C 43.7 °F /  6.5 °C 30.29in /  1025.6hPa Calm   2mph /  3.2km/h 86% 0.00in /  0mm 294 W/m2
08:30 49.4 °F /  9.7 °C 44.8 °F /  7.1 °C 30.29in /  1025.6hPa ESE 1mph /  1.6km/h 5mph /  8km/h 84% 0.00in /  0mm 363 W/m2
08:40 51.3 °F /  10.7 °C 45.6 °F /  7.6 °C 30.29in /  1025.6hPa NE 1mph /  1.6km/h 4mph /  6.4km/h 81% 0.00in /  0mm 330 W/m2
08:50 53 °F /  11.7 °C 46.7 °F /  8.2 °C 30.29in /  1025.6hPa SE 1mph /  1.6km/h 5mph /  8km/h 79% 0.00in /  0mm 269 W/m2
09:00 53.9 °F /  12.2 °C 46.9 °F /  8.3 °C 30.28in /  1025.3hPa SSE 1mph /  1.6km/h 4mph /  6.4km/h 77% 0.00in /  0mm 400 W/m2
09:10 55.6 °F /  13.1 °C 48.5 °F /  9.2 °C 30.28in /  1025.3hPa SSW 1mph /  1.6km/h 3mph /  4.8km/h 77% 0.00in /  0mm 501 W/m2
09:20 57.2 °F /  14 °C 48.6 °F /  9.2 °C 30.28in /  1025.3hPa SSE 1mph /  1.6km/h 5mph /  8km/h 73% 0.00in /  0mm 536 W/m2
09:30 58.6 °F /  14.8 °C 49.6 °F /  9.8 °C 30.28in /  1025.3hPa South 1mph /  1.6km/h 5mph /  8km/h 72% 0.00in /  0mm 562 W/m2
09:40 60.8 °F /  16 °C 50.9 °F /  10.5 °C 30.28in /  1025.3hPa NE 3mph /  4.8km/h 7mph /  11.3km/h 70% 0.00in /  0mm 586 W/m2
09:50 63.1 °F /  17.3 °C 51.2 °F /  10.7 °C 30.27in /  1024.9hPa NNW 1mph /  1.6km/h 7mph /  11.3km/h 65% 0.00in /  0mm 610 W/m2
10:00 65.5 °F /  18.6 °C 52.1 °F /  11.2 °C 30.27in /  1024.9hPa North 8mph /  12.9km/h 14mph /  22.5km/h 62% 0.00in /  0mm 632 W/m2
10:10 67.4 °F /  19.7 °C 52.1 °F /  11.2 °C 30.27in /  1024.9hPa North 6mph /  9.7km/h 16mph /  25.7km/h 58% 0.00in /  0mm 654 W/m2
10:20 69.1 °F /  20.6 °C 51.7 °F /  10.9 °C 30.27in /  1024.9hPa ENE 5mph /  8km/h 12mph /  19.3km/h 54% 0.00in /  0mm 616 W/m2
10:30 70.3 °F /  21.3 °C 51.9 °F /  11.1 °C 30.27in /  1024.9hPa ENE 5mph /  8km/h 13mph /  20.9km/h 52% 0.00in /  0mm 277 W/m2
10:40 71.4 °F /  21.9 °C 51.3 °F /  10.7 °C 30.26in /  1024.6hPa NE 5mph /  8km/h 10mph /  16.1km/h 49% 0.00in /  0mm 371 W/m2
10:50 72.1 °F /  22.3 °C 49.6 °F /  9.8 °C 30.26in /  1024.6hPa NE 6mph /  9.7km/h 13mph /  20.9km/h 45% 0.00in /  0mm 240 W/m2
11:00 73 °F /  22.8 °C 50.4 °F /  10.2 °C 30.26in /  1024.6hPa NE 6mph /  9.7km/h 13mph /  20.9km/h 45% 0.00in /  0mm 705 W/m2
11:10 73.4 °F /  23 °C 50.2 °F /  10.1 °C 30.26in /  1024.6hPa ENE 5mph /  8km/h 13mph /  20.9km/h 44% 0.00in /  0mm 374 W/m2
11:20 73.2 °F /  22.9 °C 49.4 °F /  9.7 °C 30.25in /  1024.3hPa ENE 7mph /  11.3km/h 16mph /  25.7km/h 43% 0.00in /  0mm 737 W/m2
11:30 73.7 °F /  23.2 °C 49.8 °F /  9.9 °C 30.26in /  1024.6hPa ENE 3mph /  4.8km/h 11mph /  17.7km/h 43% 0.00in /  0mm 775 W/m2
11:40 74.5 °F /  23.6 °C 51.1 °F /  10.6 °C 30.25in /  1024.3hPa NNE 8mph /  12.9km/h 15mph /  24.1km/h 44% 0.00in /  0mm 783 W/m2
11:50 75 °F /  23.9 °C 51.6 °F /  10.9 °C 30.25in /  1024.3hPa North 9mph /  14.5km/h 17mph /  27.4km/h 44% 0.00in /  0mm 790 W/m2
12:00 75.6 °F /  24.2 °C 51.5 °F /  10.8 °C 30.25in /  1024.3hPa NNE 5mph /  8km/h 13mph /  20.9km/h 43% 0.00in /  0mm 795 W/m2
12:10 76.1 °F /  24.5 °C 51.3 °F /  10.7 °C 30.25in /  1024.3hPa NNE 7mph /  11.3km/h 15mph /  24.1km/h 42% 0.00in /  0mm 798 W/m2
12:20 76.5 °F /  24.7 °C 50.3 °F /  10.2 °C 30.24in /  1023.9hPa NNE 6mph /  9.7km/h 16mph /  25.7km/h 40% 0.00in /  0mm 800 W/m2
12:30 76.8 °F /  24.9 °C 50.6 °F /  10.3 °C 30.24in /  1023.9hPa North 3mph /  4.8km/h 15mph /  24.1km/h 40% 0.00in /  0mm 781 W/m2
12:40 77 °F /  25 °C 50.8 °F /  10.4 °C 30.24in /  1023.9hPa NE 3mph /  4.8km/h 16mph /  25.7km/h 40% 0.00in /  0mm 719 W/m2
12:50 77.2 °F /  25.1 °C 50.3 °F /  10.2 °C 30.24in /  1023.9hPa ENE 5mph /  8km/h 18mph /  29km/h 39% 0.00in /  0mm 776 W/m2
13:00 77.4 °F /  25.2 °C 51.1 °F /  10.6 °C 30.24in /  1023.9hPa NNE 7mph /  11.3km/h 16mph /  25.7km/h 40% 0.00in /  0mm 791 W/m2
13:10 77.5 °F /  25.3 °C 49.9 °F /  9.9 °C 30.23in /  1023.6hPa NNE 5mph /  8km/h 14mph /  22.5km/h 38% 0.00in /  0mm 577 W/m2
13:20 77.2 °F /  25.1 °C 49.6 °F /  9.8 °C 30.23in /  1023.6hPa North 2mph /  3.2km/h 15mph /  24.1km/h 38% 0.00in /  0mm 646 W/m2
13:30 77.7 °F /  25.4 °C 50.8 °F /  10.4 °C 30.23in /  1023.6hPa NW 2mph /  3.2km/h 11mph /  17.7km/h 39% 0.00in /  0mm 768 W/m2
13:40 78.1 °F /  25.6 °C 51.1 °F /  10.6 °C 30.22in /  1023.2hPa NNE 2mph /  3.2km/h 13mph /  20.9km/h 39% 0.00in /  0mm 723 W/m2
13:50 78.1 °F /  25.6 °C 49.7 °F /  9.8 °C 30.22in /  1023.2hPa NNW 3mph /  4.8km/h 16mph /  25.7km/h 37% 0.00in /  0mm 367 W/m2
14:00 77.5 °F /  25.3 °C 49.2 °F /  9.6 °C 30.22in /  1023.2hPa NE 7mph /  11.3km/h 13mph /  20.9km/h 37% 0.00in /  0mm 731 W/m2
14:10 77.7 °F /  25.4 °C 47.9 °F /  8.8 °C 30.22in /  1023.2hPa East 3mph /  4.8km/h 14mph /  22.5km/h 35% 0.00in /  0mm 716 W/m2
14:20 77.9 °F /  25.5 °C 49.5 °F /  9.7 °C 30.21in /  1022.9hPa East 3mph /  4.8km/h 13mph /  20.9km/h 37% 0.00in /  0mm 699 W/m2
14:30 78.3 °F /  25.7 °C 49.8 °F /  9.9 °C 30.21in /  1022.9hPa NNE 5mph /  8km/h 13mph /  20.9km/h 37% 0.00in /  0mm 680 W/m2
14:40 78.4 °F /  25.8 °C 50 °F /  10 °C 30.21in /  1022.9hPa NNE 3mph /  4.8km/h 15mph /  24.1km/h 37% 0.00in /  0mm 609 W/m2
14:50 78.4 °F /  25.8 °C 50 °F /  10 °C 30.20in /  1022.6hPa NNW 3mph /  4.8km/h 15mph /  24.1km/h 37% 0.00in /  0mm 589 W/m2
15:00 78.3 °F /  25.7 °C 49.8 °F /  9.9 °C 30.20in /  1022.6hPa North 3mph /  4.8km/h 13mph /  20.9km/h 37% 0.00in /  0mm 618 W/m2
15:10 78.3 °F /  25.7 °C 48.4 °F /  9.1 °C 30.20in /  1022.6hPa NE 7mph /  11.3km/h 15mph /  24.1km/h 35% 0.00in /  0mm 595 W/m2
15:20 78.1 °F /  25.6 °C 49.7 °F /  9.8 °C 30.19in /  1022.2hPa NNE 3mph /  4.8km/h 15mph /  24.1km/h 37% 0.00in /  0mm 570 W/m2
15:30 78.1 °F /  25.6 °C 49.7 °F /  9.8 °C 30.19in /  1022.2hPa NNE 5mph /  8km/h 13mph /  20.9km/h 37% 0.00in /  0mm 545 W/m2
15:40 77.7 °F /  25.4 °C 49.4 °F /  9.7 °C 30.19in /  1022.2hPa NNE 6mph /  9.7km/h 13mph /  20.9km/h 37% 0.00in /  0mm 470 W/m2
15:50 77.7 °F /  25.4 °C 49.4 °F /  9.7 °C 30.19in /  1022.2hPa NW 5mph /  8km/h 12mph /  19.3km/h 37% 0.00in /  0mm 492 W/m2
16:00 77.7 °F /  25.4 °C 49.4 °F /  9.7 °C 30.19in /  1022.2hPa NNE 7mph /  11.3km/h 15mph /  24.1km/h 37% 0.00in /  0mm 463 W/m2
16:10 77.5 °F /  25.3 °C 49.2 °F /  9.6 °C 30.19in /  1022.2hPa North 2mph /  3.2km/h 15mph /  24.1km/h 37% 0.00in /  0mm 435 W/m2
16:20 77.4 °F /  25.2 °C 49 °F /  9.4 °C 30.19in /  1022.2hPa NNE 3mph /  4.8km/h 11mph /  17.7km/h 37% 0.00in /  0mm 406 W/m2
16:30 77.5 °F /  25.3 °C 49.2 °F /  9.6 °C 30.19in /  1022.2hPa NNW 3mph /  4.8km/h 14mph /  22.5km/h 37% 0.00in /  0mm 376 W/m2
16:40 77.4 °F /  25.2 °C 49.1 °F /  9.5 °C 30.19in /  1022.2hPa West 3mph /  4.8km/h 13mph /  20.9km/h 37% 0.00in /  0mm 334 W/m2
16:50 76.6 °F /  24.8 °C 48.4 °F /  9.1 °C 30.19in /  1022.2hPa NNE 3mph /  4.8km/h 12mph /  19.3km/h 37% 0.00in /  0mm 254 W/m2
17:00 76.3 °F /  24.6 °C 48.8 °F /  9.3 °C 30.19in /  1022.2hPa NNE 1mph /  1.6km/h 11mph /  17.7km/h 38% 0.00in /  0mm 268 W/m2
17:10 76.1 °F /  24.5 °C 48.6 °F /  9.2 °C 30.19in /  1022.2hPa ENE 3mph /  4.8km/h 13mph /  20.9km/h 38% 0.00in /  0mm 254 W/m2
17:20 75.4 °F /  24.1 °C 48.7 °F /  9.3 °C 30.19in /  1022.2hPa NNE 3mph /  4.8km/h 12mph /  19.3km/h 39% 0.00in /  0mm 161 W/m2
17:30 74.7 °F /  23.7 °C 48 °F /  8.9 °C 30.19in /  1022.2hPa NNE 5mph /  8km/h 13mph /  20.9km/h 39% 0.00in /  0mm 194 W/m2
17:40 74.1 °F /  23.4 °C 49.5 °F /  9.7 °C 30.19in /  1022.2hPa North 3mph /  4.8km/h 13mph /  20.9km/h 42% 0.00in /  0mm 165 W/m2
17:50 73.4 °F /  23 °C 48.9 °F /  9.4 °C 30.19in /  1022.2hPa North 3mph /  4.8km/h 10mph /  16.1km/h 42% 0.00in /  0mm 137 W/m2
18:00 73 °F /  22.8 °C 48.6 °F /  9.2 °C 30.19in /  1022.2hPa North 5mph /  8km/h 9mph /  14.5km/h 42% 0.00in /  0mm 109 W/m2
18:10 72.5 °F /  22.5 °C 48.7 °F /  9.3 °C 30.19in /  1022.2hPa North 3mph /  4.8km/h 10mph /  16.1km/h 43% 0.00in /  0mm 83 W/m2
18:20 72.1 °F /  22.3 °C 49 °F /  9.4 °C 30.18in /  1021.9hPa NNE 3mph /  4.8km/h 8mph /  12.9km/h 44% 0.00in /  0mm 59 W/m2
18:30 71.6 °F /  22 °C 48.5 °F /  9.2 °C 30.18in /  1021.9hPa North 3mph /  4.8km/h 8mph /  12.9km/h 44% 0.00in /  0mm 37 W/m2
18:40 71 °F /  21.7 °C 48 °F /  8.9 °C 30.18in /  1021.9hPa North 2mph /  3.2km/h 6mph /  9.7km/h 44% 0.00in /  0mm 18 W/m2
18:50 70.3 °F /  21.3 °C 48 °F /  8.9 °C 30.18in /  1021.9hPa NNW 2mph /  3.2km/h 6mph /  9.7km/h 45% 0.00in /  0mm 6 W/m2
19:00 69.8 °F /  21 °C 49.2 °F /  9.6 °C 30.19in /  1022.2hPa North 2mph /  3.2km/h 7mph /  11.3km/h 48% 0.00in /  0mm 0 W/m2
19:10 69.3 °F /  20.7 °C 48.7 °F /  9.3 °C 30.19in /  1022.2hPa North 3mph /  4.8km/h 6mph /  9.7km/h 48% 0.00in /  0mm 0 W/m2
19:20 68.9 °F /  20.5 °C 48.9 °F /  9.4 °C 30.19in /  1022.2hPa North 3mph /  4.8km/h 8mph /  12.9km/h 49% 0.00in /  0mm 0 W/m2
19:30 68.5 °F /  20.3 °C 49.2 °F /  9.6 °C 30.19in /  1022.2hPa North 3mph /  4.8km/h 9mph /  14.5km/h 50% 0.00in /  0mm 0 W/m2
19:40 68 °F /  20 °C 49.7 °F /  9.8 °C 30.19in /  1022.2hPa North 2mph /  3.2km/h 7mph /  11.3km/h 52% 0.00in /  0mm 0 W/m2
19:50 67.6 °F /  19.8 °C 49.4 °F /  9.7 °C 30.19in /  1022.2hPa North 3mph /  4.8km/h 8mph /  12.9km/h 52% 0.00in /  0mm 0 W/m2
20:00 67.3 °F /  19.6 °C 49.6 °F /  9.8 °C 30.20in /  1022.6hPa North 1mph /  1.6km/h 7mph /  11.3km/h 53% 0.00in /  0mm 0 W/m2
20:10 66.9 °F /  19.4 °C 49.2 °F /  9.6 °C 30.20in /  1022.6hPa NW 2mph /  3.2km/h 7mph /  11.3km/h 53% 0.00in /  0mm 0 W/m2
20:20 66.6 °F /  19.2 °C 49.4 °F /  9.7 °C 30.20in /  1022.6hPa North 3mph /  4.8km/h 9mph /  14.5km/h 54% 0.00in /  0mm 0 W/m2
20:30 66.4 °F /  19.1 °C 49.2 °F /  9.6 °C 30.20in /  1022.6hPa North 3mph /  4.8km/h 9mph /  14.5km/h 54% 0.00in /  0mm 0 W/m2
20:40 66.2 °F /  19 °C 49 °F /  9.4 °C 30.20in /  1022.6hPa North 2mph /  3.2km/h 8mph /  12.9km/h 54% 0.00in /  0mm 0 W/m2
20:50 66 °F /  18.9 °C 49.4 °F /  9.7 °C 30.20in /  1022.6hPa North 2mph /  3.2km/h 7mph /  11.3km/h 55% 0.00in /  0mm 0 W/m2
21:00 65.8 °F /  18.8 °C 49.2 °F /  9.6 °C 30.20in /  1022.6hPa North 2mph /  3.2km/h 8mph /  12.9km/h 55% 0.00in /  0mm 0 W/m2
21:10 65.7 °F /  18.7 °C 49 °F /  9.4 °C 30.20in /  1022.6hPa North 2mph /  3.2km/h 8mph /  12.9km/h 55% 0.00in /  0mm 0 W/m2
21:20 65.5 °F /  18.6 °C 48.9 °F /  9.4 °C 30.20in /  1022.6hPa North 3mph /  4.8km/h 8mph /  12.9km/h 55% 0.00in /  0mm 0 W/m2
21:30 65.1 °F /  18.4 °C 48.5 °F /  9.2 °C 30.20in /  1022.6hPa North 1mph /  1.6km/h 7mph /  11.3km/h 55% 0.00in /  0mm 0 W/m2
21:40 65.1 °F /  18.4 °C 48.5 °F /  9.2 °C 30.20in /  1022.6hPa North 2mph /  3.2km/h 8mph /  12.9km/h 55% 0.00in /  0mm 0 W/m2
21:50 64.9 °F /  18.3 °C 49.3 °F /  9.6 °C 30.21in /  1022.9hPa North 2mph /  3.2km/h 7mph /  11.3km/h 57% 0.00in /  0mm 0 W/m2
22:00 64.4 °F /  18 °C 49.3 °F /  9.6 °C 30.20in /  1022.6hPa Calm   4mph /  6.4km/h 58% 0.00in /  0mm 0 W/m2
22:10 63.9 °F /  17.7 °C 48.8 °F /  9.3 °C 30.20in /  1022.6hPa North 1mph /  1.6km/h 3mph /  4.8km/h 58% 0.00in /  0mm 0 W/m2
22:20 63.5 °F /  17.5 °C 48.4 °F /  9.1 °C 30.20in /  1022.6hPa NNE 1mph /  1.6km/h 3mph /  4.8km/h 58% 0.00in /  0mm 0 W/m2
22:30 63 °F /  17.2 °C 48.4 °F /  9.1 °C 30.21in /  1022.9hPa NNE 3mph /  4.8km/h 8mph /  12.9km/h 59% 0.00in /  0mm 0 W/m2
22:40 63 °F /  17.2 °C 48.4 °F /  9.1 °C 30.21in /  1022.9hPa NNE 1mph /  1.6km/h 8mph /  12.9km/h 59% 0.00in /  0mm 0 W/m2
22:50 63 °F /  17.2 °C 48.9 °F /  9.4 °C 30.21in /  1022.9hPa Calm   8mph /  12.9km/h 60% 0.00in /  0mm 0 W/m2
23:00 62.2 °F /  16.8 °C 49.1 °F /  9.5 °C 30.21in /  1022.9hPa SSE 1mph /  1.6km/h 3mph /  4.8km/h 62% 0.00in /  0mm 0 W/m2
23:10 61.7 °F /  16.5 °C 48.5 °F /  9.2 °C 30.21in /  1022.9hPa Calm   3mph /  4.8km/h 62% 0.00in /  0mm 0 W/m2
23:20 61.1 °F /  16.2 °C 48.4 °F /  9.1 °C 30.21in /  1022.9hPa NE 1mph /  1.6km/h 4mph /  6.4km/h 63% 0.00in /  0mm 0 W/m2
23:30 60.2 °F /  15.7 °C 48.4 °F /  9.1 °C 30.21in /  1022.9hPa SE 2mph /  3.2km/h 5mph /  8km/h 65% 0.00in /  0mm 0 W/m2
23:40 59.5 °F /  15.3 °C 47.8 °F /  8.8 °C 30.21in /  1022.9hPa SSE 1mph /  1.6km/h 4mph /  6.4km/h 65% 0.00in /  0mm 0 W/m2
23:50 59.4 °F /  15.2 °C 48.4 °F /  9.1 °C 30.21in /  1022.9hPa SSW 1mph /  1.6km/h 3mph /  4.8km/h 67% 0.00in /  0mm 0 W/m2
Knjazevac, Serbia
Compliments of Weather Underground - 2 mb